Flight Track Log - Related Links

Times and Time Zones

All times are in EDT time to prevent confusion due to time zone crossing. See the UAL481 flight status page for this flight to view local times or setup timezone preferences in your user account.

Time Position Orientation Groundspeed Altitude Reporting Facility
EDT Latitude Longitude Course Direction KTS MPH feet Rate Location/Type
Sat 09:43:18 PM 38.9500 -77.5333 270° West 192 221 1,800  Level Potomac TRACON
Sat 09:44:29 PM 38.9397 -77.6386 263° West 243 280 4,000 2,215 Climbing Washington Center
Sat 09:45:00 PM 38.8722 -77.8783 260° West  Level FlightAware Approximate
Sat 09:45:28 PM 38.9425 -77.7242 272° West 267 307 6,600  Level Washington Center
Sat 09:46:00 PM 38.8967 -78.0201 288° West  Level FlightAware Approximate
Sat 09:46:29 PM 38.9469 -77.8283 273° West 273 314 9,600  Level Washington Center
Sat 09:47:00 PM 38.9323 -78.1624 288° West  Level FlightAware Approximate
Sat 09:47:29 PM 38.9492 -77.9219 272° West 279 321 10,800  Level Washington Center
Sat 09:48:00 PM 38.9500 -78.3055 270° West  Level FlightAware Approximate
Sat 09:48:29 PM 38.9550 -78.0475 273° West 315 362 11,800  Level Washington Center
Sat 09:49:27 PM 38.9586 -78.1811 272° West 345 397 13,500 1,664 Climbing Washington Center
Sat 09:50:28 PM 38.9639 -78.3175 273° West 376 433 15,100 1,426 Climbing Washington Center
Sat 09:51:29 PM 38.9667 -78.4617 271° West 392 451 16,400 1,450 Climbing Washington Center
Sat 09:52:28 PM 38.9714 -78.6086 272° West 407 468 18,000 1,400 Climbing Washington Center
Sat 09:53:29 PM 38.9761 -78.7506 272° West 407 468 19,200 1,230 Climbing Washington Center
Sat 09:54:30 PM 38.9806 -78.9003 272° West 412 474 20,500 1,210 Climbing Washington Center
Sat 09:55:28 PM 38.9847 -79.0500 272° West 422 486 21,600 966 Climbing Washington Center
Sat 09:56:28 PM 38.9883 -79.2022 272° West 427 491 22,400 934 Climbing Washington Center
Sat 09:57:30 PM 38.9919 -79.3600 272° West 432 497 23,500 934 Climbing Washington Center
Sat 09:58:30 PM 38.9975 -79.5153 273° West 432 497 24,300 750 Climbing Washington Center
Sat 09:59:30 PM 39.0000 -79.6864 271° West 444 511 25,000 1,068 Climbing Washington Center
Sat 10:00:28 PM 39.0031 -79.8414 272° West 444 511 26,400 1,289 Climbing Washington Center
Sat 10:01:31 PM 39.0022 -79.9706 270° West 416 479 27,600 1,016 Climbing Indianapolis Center
Sat 10:02:32 PM 39.0056 -80.1428 271° West 411 473 28,500 787 Climbing Indianapolis Center
Sat 10:03:33 PM 39.0069 -80.2917 271° West 415 478 29,200 744 Climbing Indianapolis Center
Sat 10:04:33 PM 39.0092 -80.4400 271° West 417 480 30,000 1,140 Climbing Indianapolis Center
Sat 10:05:34 PM 39.0114 -80.5869 271° West 413 475 31,500 984 Climbing Indianapolis Center
Sat 10:06:35 PM 39.0133 -80.7292 271° West 401 461 32,000 248 Climbing Indianapolis Center
Sat 10:07:35 PM 39.0406 -80.8731 284° West 416 479 32,000  Level Indianapolis Center
Sat 10:08:36 PM 39.0956 -81.0089 298° West 429 494 32,000  Level Indianapolis Center
Sat 10:09:37 PM 39.1511 -81.1439 298° West 429 494 32,000  Level Indianapolis Center
Sat 10:10:37 PM 39.2050 -81.2736 298° West 418 481 32,000  Level Indianapolis Center
Sat 10:11:38 PM 39.2592 -81.4072 298° West 421 484 32,000  Level Indianapolis Center
Sat 10:12:39 PM 39.3136 -81.5386 298° West 420 483 32,000  Level Indianapolis Center
Sat 10:13:39 PM 39.3672 -81.6711 298° West 419 482 32,000  Level Indianapolis Center
Sat 10:14:40 PM 39.4208 -81.8053 297° West 422 486 32,000  Level Indianapolis Center
Sat 10:15:41 PM 39.4736 -81.9414 297° West 425 489 32,000  Level Indianapolis Center
Sat 10:16:41 PM 39.5278 -82.0733 298° West 419 482 32,000  Level Indianapolis Center
Sat 10:17:42 PM 39.5803 -82.2092 297° West 420 483 32,000  Level Indianapolis Center
Sat 10:18:43 PM 39.6339 -82.3411 298° West 416 479 32,000  Level Indianapolis Center
Sat 10:19:43 PM 39.6972 -82.5017 297° West 415 478 32,000  Level Indianapolis Center
Sat 10:20:44 PM 39.7492 -82.6350 297° West 415 478 32,000  Level Indianapolis Center
Sat 10:21:45 PM 39.8022 -82.7697 297° West 417 480 32,000  Level Indianapolis Center
Sat 10:22:45 PM 39.8544 -82.9047 297° West 419 482 32,000  Level Indianapolis Center
Sat 10:23:46 PM 39.9072 -83.0400 297° West 418 481 32,000  Level Indianapolis Center
Sat 10:24:46 PM 39.9600 -83.1742 297° West 417 480 32,000  Level Indianapolis Center
Sat 10:25:47 PM 40.0083 -83.3022 296° West 421 484 32,000  Level Indianapolis Center
Sat 10:27:26 PM 40.0925 -83.5228 297° West 420 483 32,000  Level Chicago Center
Sat 10:28:27 PM 40.1439 -83.6572 297° West 417 480 32,000  Level Chicago Center
Sat 10:29:27 PM 40.1950 -83.7925 296° West 416 479 32,000  Level Chicago Center
Sat 10:30:28 PM 40.2467 -83.9286 296° West 417 480 32,000  Level Chicago Center
Sat 10:31:29 PM 40.2986 -84.0672 296° West 423 487 32,000 49 Level Chicago Center
Sat 10:32:30 PM 40.3508 -84.2047 297° West 423 487 32,100  Climbing Chicago Center
Sat 10:33:30 PM 40.4122 -84.3728 296° West 424 488 32,000 -50 Descending Chicago Center
Sat 10:34:31 PM 40.4633 -84.5119 296° West 425 489 32,000  Level Chicago Center
Sat 10:35:32 PM 40.5147 -84.6511 296° West 424 488 32,000  Level Chicago Center
Sat 10:36:33 PM 40.5689 -84.7967 296° West 429 494 32,000  Level Chicago Center
Sat 10:37:34 PM 40.6214 -84.9386 296° West 433 498 32,000  Level Chicago Center
Sat 10:38:35 PM 40.6719 -85.0792 295° West 435 501 32,000  Level Chicago Center
Sat 10:39:36 PM 40.7233 -85.2219 295° West 432 497 32,000  Level Chicago Center
Sat 10:40:37 PM 40.7742 -85.3644 295° West 431 496 32,000  Level Chicago Center
Sat 10:41:38 PM 40.8264 -85.5086 296° West 433 498 32,000  Level Chicago Center
Sat 10:42:38 PM 40.8772 -85.6544 295° West 435 501 32,000  Level Chicago Center
Sat 10:43:39 PM 40.9297 -85.7992 296° West 436 502 32,000  Level Chicago Center
Sat 10:44:40 PM 40.9806 -85.9431 295° West 433 498 32,000  Level Chicago Center
Sat 10:45:41 PM 41.0392 -86.0856 299° West 438 504 32,000  Level Chicago Center
Sat 10:46:42 PM 41.1019 -86.2233 301° West 437 503 32,000  Level Chicago Center
Sat 10:47:43 PM 41.1647 -86.3625 301° West 439 505 32,000  Level Chicago Center
Sat 10:48:44 PM 41.2278 -86.5014 301° West 440 506 32,000  Level Chicago Center
Sat 10:49:45 PM 41.2886 -86.6389 301° West 435 501 32,000  Level Chicago Center
Sat 10:50:46 PM 41.3525 -86.7800 301° West 436 502 32,000  Level Chicago Center
Sat 10:51:46 PM 41.4269 -86.9439 301° West 434 499 32,000  Level Chicago Center
Sat 10:52:47 PM 41.4886 -87.0831 301° West 437 503 32,000  Level Chicago Center
Sat 10:53:48 PM 41.5492 -87.2214 300° West 437 503 32,000  Level Chicago Center
Sat 10:54:49 PM 41.6111 -87.3614 301° West 441 507 32,000  Level Chicago Center
Sat 10:55:50 PM 41.6728 -87.5003 301° West 439 505 32,000  Level Chicago Center
Sat 10:56:50 PM 41.7333 -87.6397 300° West 439 505 32,000  Level Chicago Center
Sat 10:57:51 PM 41.7936 -87.7789 300° West 438 504 32,000  Level Chicago Center
Sat 10:58:52 PM 41.8539 -87.9189 300° West 439 505 32,000  Level Chicago Center
Sat 10:59:53 PM 41.9169 -88.0908 296° West 433 498 32,000  Level Chicago Center
Sat 11:00:53 PM 41.9636 -88.2389 293° West 434 499 32,000  Level Chicago Center
Sat 11:01:54 PM 42.0103 -88.3867 293° West 435 501 32,000  Level Chicago Center
Sat 11:02:55 PM 42.0561 -88.5350 293° West 435 501 32,000  Level Chicago Center
Sat 11:03:55 PM 42.1033 -88.6839 293° West 436 502 32,000  Level Chicago Center
Sat 11:04:56 PM 42.1539 -88.8508 292° West 439 505 32,000  Level Chicago Center
Sat 11:05:57 PM 42.2008 -89.0028 293° West 438 504 32,000  Level Chicago Center
Sat 11:06:57 PM 42.2472 -89.1544 292° West 436 502 32,000  Level Chicago Center
Sat 11:07:58 PM 42.2922 -89.3094 291° West 442 509 32,000  Level Chicago Center
Sat 11:08:59 PM 42.3381 -89.4589 293° West 432 497 32,000  Level Chicago Center
Sat 11:09:59 PM 42.3839 -89.6106 292° West 435 501 32,000  Level Chicago Center
Sat 11:11:00 PM 42.4292 -89.7633 292° West 436 502 32,000  Level Chicago Center
Sat 11:12:00 PM 42.4750 -89.9144 292° West 433 498 32,000  Level Chicago Center
Sat 11:13:01 PM 42.5114 -90.0478 290° West 439 505 32,000  Level Chicago Center
Sat 11:14:01 PM 42.5472 -90.2028 287° West 435 501 32,000  Level Chicago Center
Sat 11:15:02 PM 42.5836 -90.3564 288° West 433 498 32,000  Level Chicago Center
Sat 11:16:02 PM 42.6267 -90.5433 287° West 435 501 32,000  Level Chicago Center
Sat 11:17:03 PM 42.6625 -90.6981 288° West 435 501 32,000  Level Chicago Center
Sat 11:18:03 PM 42.6997 -90.8542 288° West 436 502 32,000  Level Chicago Center
Sat 11:19:04 PM 42.7356 -91.0108 287° West 438 504 32,000  Level Chicago Center
Sat 11:20:05 PM 42.7728 -91.1664 288° West 439 505 32,000  Level Chicago Center
Sat 11:21:05 PM 42.8078 -91.3225 287° West 437 503 32,000  Level Chicago Center
Sat 11:22:06 PM 42.8436 -91.4792 287° West 442 509 32,000  Level Chicago Center
Sat 11:23:06 PM 42.8786 -91.6361 287° West 450 518 32,000  Level Chicago Center
Sat 11:24:07 PM 42.9183 -91.8264 286° West 446 513 32,000 50 Level Chicago Center
Sat 11:25:07 PM 42.9528 -91.9836 287° West 441 507 32,100 595 Climbing Chicago Center
Sat 11:26:08 PM 42.9864 -92.1383 287° West 433 498 33,200 942 Climbing Chicago Center
Sat 11:27:08 PM 43.0186 -92.2917 286° West 425 489 34,000 397 Climbing Chicago Center
Sat 11:28:09 PM 43.0517 -92.4417 287° West 420 483 34,000  Level Chicago Center
Sat 11:29:09 PM 43.0836 -92.5947 286° West 422 486 34,000  Level Chicago Center
Sat 11:30:10 PM 43.1167 -92.7492 286° West 427 491 34,000  Level Chicago Center
Sat 11:31:11 PM 43.1481 -92.9025 286° West 424 488 34,000  Level Chicago Center
Sat 11:32:11 PM 43.1803 -93.0561 286° West 424 488 34,000  Level Chicago Center
Sat 11:33:11 PM 43.2122 -93.2097 286° West 423 487 34,000  Level Chicago Center
Sat 11:34:11 PM 43.2444 -93.3636 286° West 424 488 34,000  Level Chicago Center
Sat 11:35:12 PM 43.2747 -93.5194 285° West 426 490 34,000  Level Chicago Center
Sat 11:36:12 PM 43.2978 -93.7100 280° West 425 489 34,000  Level Chicago Center
Sat 11:36:52 PM 43.3083 -93.8067 279° West 429 494 34,000  Level Minneapolis Center
Sat 11:37:53 PM 43.3228 -93.9625 277° West 422 486 34,000  Level Minneapolis Center
Sat 11:38:54 PM 43.3389 -94.1208 278° West 420 483 34,000  Level Minneapolis Center
Sat 11:39:54 PM 43.3558 -94.3022 277° West 422 486 34,000  Level Minneapolis Center
Sat 11:40:55 PM 43.3694 -94.4661 277° West 428 493 34,000  Level Minneapolis Center
Sat 11:41:56 PM 43.3842 -94.6258 277° West 425 489 34,000  Level Minneapolis Center
Sat 11:42:57 PM 43.4003 -94.7878 278° West 426 490 34,000  Level Minneapolis Center
Sat 11:43:57 PM 43.4572 -94.9342 298° West 432 497 34,000  Level Minneapolis Center
Sat 11:44:58 PM 43.5289 -95.0661 307° West 431 496 34,000  Level Minneapolis Center
Sat 11:45:59 PM 43.6019 -95.1958 308° West 430 495 34,000  Level Minneapolis Center
Sat 11:47:00 PM 43.6772 -95.3239 309° West 431 496 34,000 50 Level Minneapolis Center
Sat 11:48:00 PM 43.7542 -95.4533 309° West 435 501 34,100  Climbing Minneapolis Center
Sat 11:49:01 PM 43.8150 -95.5578 309° West 437 503 34,000 -49 Descending Minneapolis Center
Sat 11:50:02 PM 43.9072 -95.7114 310° West 433 498 34,000  Level Minneapolis Center
Sat 11:51:02 PM 43.9819 -95.8400 309° West 429 494 34,000  Level Minneapolis Center
Sat 11:52:03 PM 44.0503 -95.9747 305° West 428 493 34,000  Level Minneapolis Center
Sat 11:53:04 PM 44.1203 -96.1097 306° West 430 495 34,000  Level Minneapolis Center
Sat 11:54:04 PM 44.1939 -96.2558 305° West 436 502 34,000  Level Minneapolis Center
Sat 11:55:05 PM 44.2603 -96.4053 302° West 439 505 34,000 49 Level Minneapolis Center
Sat 11:56:06 PM 44.3228 -96.5492 301° West 434 499 34,100 50 Climbing Minneapolis Center
Sat 11:57:06 PM 44.3858 -96.6939 301° West 438 504 34,100 -50 Level Minneapolis Center
Sat 11:58:07 PM 44.4350 -96.8442 295° West 427 491 34,000 -50 Descending Minneapolis Center
Sat 11:59:07 PM 44.4739 -96.9986 289° West 424 488 34,000  Level Minneapolis Center
Sun 12:00:08 AM 44.5111 -97.1550 289° West 425 489 34,000  Level Minneapolis Center
Sun 12:01:09 AM 44.5489 -97.3119 289° West 427 491 34,000  Level Minneapolis Center
Sun 12:02:09 AM 44.5858 -97.4689 288° West 425 489 34,000  Level Minneapolis Center
Sun 12:03:10 AM 44.6222 -97.6267 288° West 426 490 34,000  Level Minneapolis Center
Sun 12:04:11 AM 44.6572 -97.7858 287° West 427 491 34,000  Level Minneapolis Center
Sun 12:05:11 AM 44.6592 -97.9850 271° West 424 488 34,000  Level Minneapolis Center
Sun 12:06:12 AM 44.6586 -98.1489 270° West 423 487 34,000  Level Minneapolis Center
Sun 12:07:12 AM 44.6589 -98.3133 270° West 424 488 34,000  Level Minneapolis Center
Sun 12:08:13 AM 44.6581 -98.4631 270° West 424 488 34,000  Level Minneapolis Center
Sun 12:09:14 AM 44.6572 -98.6294 270° West 425 489 34,000  Level Minneapolis Center
Sun 12:10:14 AM 44.6561 -98.7978 270° West 429 494 34,000  Level Minneapolis Center
Sun 12:11:15 AM 44.6544 -98.9647 269° West 428 493 34,000  Level Minneapolis Center
Sun 12:12:15 AM 44.6531 -99.1319 269° West 427 491 34,000  Level Minneapolis Center
Sun 12:13:16 AM 44.6508 -99.2983 269° West 426 490 34,000  Level Minneapolis Center
Sun 12:14:16 AM 44.6481 -99.4653 269° West 426 490 34,000  Level Minneapolis Center
Sun 12:15:17 AM 44.6458 -99.6294 269° West 421 484 34,000  Level Minneapolis Center
Sun 12:16:18 AM 44.6433 -99.7936 269° West 419 482 34,000  Level Minneapolis Center
Sun 12:17:18 AM 44.6394 -99.9572 268° West 417 480 34,000  Level Minneapolis Center
Sun 12:18:19 AM 44.6367 -100.1200 269° West 415 478 34,000  Level Minneapolis Center
Sun 12:19:19 AM 44.6342 -100.2817 269° West 413 475 34,000  Level Minneapolis Center
Sun 12:20:20 AM 44.6311 -100.4444 269° West 414 476 34,000  Level Minneapolis Center
Sun 12:21:20 AM 44.6278 -100.6064 268° West 414 476 34,000  Level Minneapolis Center
Sun 12:22:21 AM 44.6236 -100.7683 268° West 414 476 34,000  Level Minneapolis Center
Sun 12:23:21 AM 44.6194 -100.9292 268° West 414 476 34,000  Level Minneapolis Center
Sun 12:24:22 AM 44.6150 -101.0911 268° West 414 476 34,000  Level Minneapolis Center
Sun 12:25:22 AM 44.6089 -101.2533 267° West 415 478 34,000 278 Level Minneapolis Center
Sun 12:26:10 AM 44.5794 -101.3797 252° West 425 489 34,500 889 Climbing Denver Center
Sun 12:27:10 AM 44.5489 -101.5400 255° West 427 491 35,600 744 Climbing Denver Center
Sun 12:28:11 AM 44.5183 -101.6936 254° West 415 478 36,000 197 Climbing Denver Center
Sun 12:29:12 AM 44.4753 -101.8803 252° West 419 482 36,000  Level Denver Center
Sun 12:30:12 AM 44.4397 -102.0336 252° West 417 480 36,000  Level Denver Center
Sun 12:31:13 AM 44.4036 -102.1892 252° West 420 483 36,000  Level Denver Center
Sun 12:32:14 AM 44.3653 -102.3422 251° West 418 481 36,000  Level Denver Center
Sun 12:33:14 AM 44.3269 -102.4964 251° West 420 483 36,000  Level Denver Center
Sun 12:34:15 AM 44.2917 -102.6531 253° West 422 486 36,000  Level Denver Center
Sun 12:35:16 AM 44.2581 -102.8119 254° West 426 490 36,000  Level Denver Center
Sun 12:36:16 AM 44.2239 -102.9697 253° West 427 491 36,000  Level Denver Center
Sun 12:37:17 AM 44.1886 -103.1208 252° West 416 479 36,000  Level Denver Center
Sun 12:38:17 AM 44.1575 -103.2739 254° West 404 465 36,000  Level Denver Center
Sun 12:39:18 AM 44.1711 -103.4183 278° West 395 455 36,000  Level Denver Center
Sun 12:40:18 AM 44.1919 -103.5692 281° West 410 472 36,000  Level Denver Center
Sun 12:41:19 AM 44.2150 -103.7417 281° West 407 468 36,000  Level Denver Center
Sun 12:42:20 AM 44.2350 -103.8906 281° West 410 472 36,000  Level Denver Center
Sun 12:43:20 AM 44.2547 -104.0406 280° West 413 475 36,000  Level Denver Center
Sun 12:44:21 AM 44.2783 -104.2206 280° West 423 487 36,000  Level Denver Center
Sun 12:45:21 AM 44.2972 -104.3775 280° West 429 494 36,000  Level Denver Center
Sun 12:46:22 AM 44.3178 -104.5358 280° West 434 499 36,000  Level Denver Center
Sun 12:47:22 AM 44.3408 -104.7217 280° West 436 502 36,000  Level Denver Center
Sun 12:48:23 AM 44.3603 -104.8800 280° West 435 501 36,000  Level Denver Center
Sun 12:49:23 AM 44.3803 -105.0394 280° West 436 502 36,000  Level Denver Center
Sun 12:50:23 AM 44.4031 -105.2281 280° West 440 506 36,000  Level Denver Center
Sun 12:51:24 AM 44.4217 -105.3906 279° West 443 510 36,000  Level Denver Center
Sun 12:52:24 AM 44.4408 -105.5564 279° West 449 517 36,000  Level Denver Center
Sun 12:53:25 AM 44.4642 -105.7458 280° West 446 513 36,000  Level Denver Center
Sun 12:54:25 AM 44.4822 -105.9094 279° West 446 513 36,000  Level Denver Center
Sun 12:55:26 AM 44.4992 -106.0697 278° West 448 516 36,000  Level Denver Center
Sun 12:56:26 AM 44.5192 -106.2403 279° West 446 513 36,000  Level Denver Center
Sun 12:57:26 AM 44.5386 -106.4119 279° West 447 514 36,000  Level Denver Center
Sun 12:58:27 AM 44.5564 -106.5844 278° West 448 516 36,000  Level Denver Center
Sun 12:59:27 AM 44.5742 -106.7553 278° West 444 511 36,000  Level Denver Center
Sun 01:00:38 AM 44.5950 -106.9589 278° West 443 510 36,000  Level Salt Lake Center
Sun 01:01:39 AM 44.6117 -107.1286 278° West 441 507 36,000  Level Salt Lake Center
Sun 01:02:40 AM 44.6289 -107.2989 278° West 441 507 36,000  Level Salt Lake Center
Sun 01:03:41 AM 44.6458 -107.4714 278° West 444 511 36,000  Level Salt Lake Center
Sun 01:04:41 AM 44.6622 -107.6419 278° West 442 509 36,000  Level Salt Lake Center
Sun 01:05:42 AM 44.6781 -107.8114 278° West 435 501 36,000  Level Salt Lake Center
Sun 01:06:43 AM 44.6914 -107.9847 276° West 434 499 36,000  Level Salt Lake Center
Sun 01:07:44 AM 44.7094 -108.1556 279° West 435 501 36,000  Level Salt Lake Center
Sun 01:08:45 AM 44.7267 -108.3264 278° West 437 503 36,000  Level Salt Lake Center
Sun 01:09:46 AM 44.7425 -108.5008 277° West 447 514 36,000  Level Salt Lake Center
Sun 01:10:46 AM 44.7594 -108.7056 277° West 439 505 36,000  Level Salt Lake Center
Sun 01:11:47 AM 44.7750 -108.8767 277° West 440 506 36,000  Level Salt Lake Center
Sun 01:12:48 AM 44.7894 -109.0500 277° West 445 512 36,000  Level Salt Lake Center
Sun 01:13:49 AM 44.8042 -109.2222 277° West 445 512 36,000  Level Salt Lake Center
Sun 01:14:49 AM 44.8203 -109.3981 277° West 451 519 36,000  Level Salt Lake Center
Sun 01:15:50 AM 44.8333 -109.5714 276° West 449 517 36,000  Level Salt Lake Center
Sun 01:16:51 AM 44.8478 -109.7450 277° West 448 516 36,000  Level Salt Lake Center
Sun 01:17:52 AM 44.8614 -109.9353 276° West 451 519 36,000  Level Salt Lake Center
Sun 01:18:52 AM 44.8733 -110.1039 276° West 453 521 36,000  Level Salt Lake Center
Sun 01:19:53 AM 44.8856 -110.2722 276° West 453 521 36,000  Level Salt Lake Center
Sun 01:20:54 AM 44.8992 -110.4692 276° West 455 524 36,000  Level Salt Lake Center
Sun 01:21:54 AM 44.9122 -110.6375 276° West 452 520 36,000  Level Salt Lake Center
Sun 01:22:55 AM 44.9242 -110.8078 276° West 455 524 36,000  Level Salt Lake Center
Sun 01:23:56 AM 44.9369 -111.0050 275° West 454 522 36,000  Level Salt Lake Center
Sun 01:24:56 AM 44.9481 -111.1739 275° West 455 524 36,000  Level Salt Lake Center
Sun 01:25:57 AM 44.9592 -111.3425 275° West 455 524 36,000  Level Salt Lake Center
Sun 01:26:58 AM 44.9714 -111.5392 275° West 455 524 36,000  Level Salt Lake Center
Sun 01:27:58 AM 44.9825 -111.7086 275° West 455 524 36,000  Level Salt Lake Center
Sun 01:28:59 AM 44.9925 -111.8792 275° West 457 526 36,000  Level Salt Lake Center
Sun 01:30:00 AM 45.0019 -112.0767 274° West 455 524 36,000  Level Salt Lake Center
Sun 01:31:00 AM 45.0075 -112.2472 273° West 456 525 36,000  Level Salt Lake Center
Sun 01:32:01 AM 45.0125 -112.4183 272° West 457 526 36,000  Level Salt Lake Center
Sun 01:33:01 AM 45.0194 -112.6181 273° West 456 525 36,000  Level Salt Lake Center
Sun 01:34:02 AM 45.0222 -112.7906 271° West 459 528 36,000  Level Salt Lake Center
Sun 01:35:03 AM 45.0272 -112.9619 272° West 458 527 36,000  Level Salt Lake Center
Sun 01:36:03 AM 45.0319 -113.1619 272° West 458 527 36,000  Level Salt Lake Center
Sun 01:37:04 AM 45.0356 -113.3342 272° West 458 527 36,000  Level Salt Lake Center
Sun 01:38:04 AM 45.0394 -113.5058 272° West 456 525 36,000  Level Salt Lake Center
Sun 01:39:05 AM 45.0442 -113.7056 272° West 455 524 36,000  Level Salt Lake Center
Sun 01:40:06 AM 45.0469 -113.8781 271° West 459 528 36,000  Level Salt Lake Center
Sun 01:41:06 AM 45.0525 -114.0542 273° West 461 531 36,000  Level Salt Lake Center
Sun 01:42:07 AM 45.0781 -114.2547 280° West 465 535 36,000  Level Salt Lake Center
Sun 01:43:07 AM 45.1014 -114.4253 281° West 461 531 36,000  Level Salt Lake Center
Sun 01:44:08 AM 45.1228 -114.5933 280° West 455 524 36,000  Level Salt Lake Center
Sun 01:45:08 AM 45.1475 -114.7900 280° West 456 525 36,000  Level Salt Lake Center
Sun 01:46:09 AM 45.1678 -114.9592 280° West 456 525 36,000  Level Salt Lake Center
Sun 01:47:09 AM 45.1892 -115.1294 280° West 458 527 36,000  Level Salt Lake Center
Sun 01:48:10 AM 45.2108 -115.3028 280° West 466 536 36,000  Level Salt Lake Center
Sun 01:49:10 AM 45.2344 -115.5078 279° West 472 543 36,000  Level Salt Lake Center
Sun 01:50:11 AM 45.2658 -115.6817 284° West 477 549 36,000  Level Salt Lake Center
Sun 01:51:11 AM 45.3147 -115.8800 289° West 479 551 36,000  Level Salt Lake Center
Sun 01:52:12 AM 45.3575 -116.0492 290° West 478 550 36,000  Level Salt Lake Center
Sun 01:53:12 AM 45.4017 -116.2181 290° West 479 551 36,000  Level Salt Lake Center
Sun 01:54:13 AM 45.4461 -116.3886 290° West 480 552 36,000  Level Salt Lake Center
Sun 01:55:14 AM 45.4989 -116.5858 291° West 479 551 36,000  Level Salt Lake Center
Sun 01:56:14 AM 45.5442 -116.7550 291° West 479 551 36,000  Level Salt Lake Center
Sun 01:57:15 AM 45.5911 -116.9247 292° West 480 552 36,000  Level Salt Lake Center
Sun 01:58:15 AM 45.6439 -117.1233 291° West 480 552 36,000  Level Salt Lake Center
Sun 01:59:15 AM 45.6908 -117.2925 292° West 480 552 36,000  Level Salt Lake Center
Sun 02:00:16 AM 45.7361 -117.4622 291° West 478 550 36,000  Level Salt Lake Center
Sun 02:01:16 AM 45.7903 -117.6625 291° West 482 555 36,000  Level Salt Lake Center
Sun 02:02:17 AM 45.8056 -117.8456 277° West 476 548 36,000  Level Salt Lake Center
Sun 02:03:17 AM 45.7867 -118.0297 262° West 470 541 36,000  Level Salt Lake Center
Sun 02:04:18 AM 45.7664 -118.2153 261° West 473 544 36,000  Level Salt Lake Center
Sun 02:05:18 AM 45.7478 -118.4019 262° West 475 547 36,000  Level Salt Lake Center
Sun 02:06:28 AM 45.7228 -118.6272 261° West 480 552 36,000 46 Level Seattle Center
Sun 02:07:28 AM 45.7028 -118.8144 261° West 479 551 36,100  Climbing Seattle Center
Sun 02:08:29 AM 45.6831 -118.9992 261° West 474 545 36,000 -50 Descending Seattle Center
Sun 02:09:29 AM 45.6619 -119.1828 261° West 470 541 36,000  Level Seattle Center
Sun 02:10:29 AM 45.6419 -119.3672 261° West 473 544 36,000 -298 Level Seattle Center
Sun 02:11:30 AM 45.6200 -119.5519 260° West 474 545 35,400 -893 Descending Seattle Center
Sun 02:12:30 AM 45.5989 -119.7328 261° West 468 539 34,200 -1,950 Descending Seattle Center
Sun 02:13:30 AM 45.5775 -119.9161 261° West 471 542 31,500 -2,479 Descending Seattle Center
Sun 02:14:31 AM 45.5553 -120.0992 260° West 473 544 29,200 -2,281 Descending Seattle Center
Sun 02:15:31 AM 45.5336 -120.2781 260° West 466 536 26,900 -2,050 Descending Seattle Center
Sun 02:16:31 AM 45.5169 -120.4489 262° West 443 510 25,100 -1,934 Descending Seattle Center
Sun 02:17:32 AM 45.5211 -120.6136 272° West 421 484 23,000 -2,083 Descending Seattle Center
Sun 02:18:32 AM 45.5222 -120.7736 271° West 409 471 20,900 -2,000 Descending Seattle Center
Sun 02:19:32 AM 45.5256 -120.9272 272° West 392 451 19,000 -1,884 Descending Seattle Center
Sun 02:20:33 AM 45.5261 -121.0758 270° West 379 436 17,100 -1,884 Descending Seattle Center
Sun 02:21:33 AM 45.5272 -121.2208 271° West 369 425 15,200 -1,959 Descending Seattle Center
Sun 02:22:11 AM 45.5289 -121.3328 271° West 358 412 13,900 -1,818 Descending Seattle Center
Sun 02:23:12 AM 45.5303 -121.4717 271° West 343 395 12,200 -1,623 Descending Seattle Center
Sun 02:24:13 AM 45.5303 -121.6047 270° West 331 381 10,600 -1,181 Descending Seattle Center
Sun 02:25:19 AM 45.5319 -121.7369 271° West 289 333 9,700 -1,587 Descending Seattle Center
Sun 02:26:14 AM 45.5342 -121.8411 272° West 288 331 7,400 -1,552 Descending Seattle Center
Sun 02:27:15 AM 45.5389 -121.9567 273° West 290 334 6,700 -397 Descending Seattle Center
Sun 02:28:15 AM 45.5419 -122.0667 272° West 280 322 6,600 -694 Descending Seattle Center
Sun 02:29:16 AM 45.5314 -122.1731 262° West 277 319 5,300 -1,345 Descending Seattle Center
Sun 02:30:11 AM 45.5222 -122.2661 262° West 252 290 4,000 -1,377 Descending Seattle Center
Sun 02:31:18 AM 45.5144 -122.3653 264° West 227 261 2,500 -898 Descending Seattle Center
Sun 02:32:18 AM 45.5333 -122.4375 290° West 174 200 2,100 -595 Descending Seattle Center
Sun 02:33:19 AM 45.5531 -122.4911 298° West 144 166 1,300 -744 Descending Seattle Center
Sun 02:34:19 AM 45.5714 -122.5392 299° West 134 154 600 -522 Descending Seattle Center
Sun 02:35:37 AM 45.5942 -122.5928 301° West 149 171 100 -385 Descending Seattle Center

Login

Don't have an account? Register now (free) for customized features, flight alerts, and more!